Aeroporto :
LOGIN :

Iscrizione | Disclaimer

   EN    FR    IT 

 










Sommario :    VFR   VFR Marginale   IFR   IFR Intensivo   IFR Molto Intensivo
Visibilità : 
Base nubi : 
>= 8 km
>= 3000ft
5 / 8 km
1000 / 3000 ft
1500m / 5 km
500 / 1000 ft
800 / 1500m
200 / 500 ft
< 800m
< 200 ft
Simboli :   Temporali  Nebbia  Neve Forte  Precipitazioni Forti  Vento > 20 kt
SIGMETs :   Varie  Temporali  Ghiacco  Turbolenza  Onda orograficha  Ceneri Vulcaniche






- Altitudine del aeroporto : 963 ft
- Codice IATA : TGM


LRTM - Transilvania Târgu Mureş Int.

ULTIMO METAR :
  • 240830Z AUTO 23011KT 9999 FEW029/// SCT033/// 16/11 Q1003

METARs OBSOLETI :
  • 240800Z AUTO 23010KT 9999 FEW050/// 16/11 Q1003
  • 240730Z AUTO 22005KT 9999 SCT050/// 14/11 Q1003
  • 240700Z AUTO VRB02KT 9999 FEW005/// 12/10 Q1003
  • 240630Z AUTO 00000KT 9999 SCT005/// BKN065/// 10/09 Q1003
  • 240600Z AUTO VRB01KT 9999 BKN006/// BKN070/// 10/09 Q1003
  • 240530Z AUTO VRB02KT 9999 FEW004/// BKN006/// 10/08 Q1003
  • 240500Z AUTO 00000KT 9999 FEW002/// SCT006/// BKN070/// 10/09 Q1003
  • 240430Z AUTO 00000KT 9999 FEW050/// BKN070/// OVC100/// 09/08 Q1003
  • 240400Z AUTO 00000KT 9999 FEW050/// BKN090/// 09/08 Q1003

TAF TAF LRTM
Valido dal 24 a 09 ore il 24 a 18 ore UTC


240800Z 2409/2418 23010KT CAVOK
BECMG 2415/2417 VRB04KT



MetMap, La meteo Aeronautica in un colpo d'occhio ! - Copyright ORBIFLY Dicembre 2007 - Disclaimer

ORBIFLY MET'MAP TEAM :

Programmazione e sviluppo : Alexandra Zaïnal
Concezione : Baudouin d'Aumeries
Supporto tecnico e logistico : Manuel Goepfert
Aiuto : Marc-Olivier Méhu
Aiuto per la traduzione : Arnaldo La Scala




FONTI E CREDITI :

   NOAA